sensor_id;sensor_type;location;lat;lon;timestamp;pressure;altitude;pressure_sealevel;temperature;humidity
73910;BME280;62245;48.070;7.874;2023-09-07T17:19:01;99109.03;;;28.02;57.98
73910;BME280;62245;48.070;7.874;2023-09-07T17:21:29;99113.38;;;28.03;57.53
73910;BME280;62245;48.070;7.874;2023-09-07T17:23:54;99106.13;;;27.98;58.48
73910;BME280;62245;48.070;7.874;2023-09-07T17:26:20;99117.41;;;27.97;58.05
73910;BME280;62245;48.070;7.874;2023-09-07T17:28:45;99119.03;;;27.89;57.57
73910;BME280;62245;48.070;7.874;2023-09-07T17:31:14;99118.22;;;27.89;58.21
73910;BME280;62245;48.070;7.874;2023-09-07T17:33:40;99113.53;;;27.81;57.79
73910;BME280;62245;48.070;7.874;2023-09-07T17:36:05;99119.31;;;27.70;59.00
73910;BME280;62245;48.070;7.874;2023-09-07T17:38:31;99127.72;;;27.65;59.18
73910;BME280;62245;48.070;7.874;2023-09-07T17:40:57;99125.75;;;27.57;58.83
73910;BME280;62245;48.070;7.874;2023-09-07T17:43:22;99126.88;;;27.56;58.74
73910;BME280;62245;48.070;7.874;2023-09-07T17:45:48;99127.13;;;27.46;59.00
73910;BME280;62245;48.070;7.874;2023-09-07T17:48:13;99129.66;;;27.34;59.31
73910;BME280;62245;48.070;7.874;2023-09-07T17:50:38;99124.03;;;27.30;59.42
73910;BME280;62245;48.070;7.874;2023-09-07T17:53:05;99126.13;;;27.33;59.76
73910;BME280;62245;48.070;7.874;2023-09-07T17:55:30;99130.09;;;27.19;60.07
73910;BME280;62245;48.070;7.874;2023-09-07T17:57:56;99121.81;;;27.01;60.27
73910;BME280;62245;48.070;7.874;2023-09-07T18:00:21;99121.28;;;26.91;60.88
73910;BME280;62245;48.070;7.874;2023-09-07T18:02:46;99138.13;;;26.84;61.54
73910;BME280;62245;48.070;7.874;2023-09-07T18:05:12;99138.38;;;26.74;62.70
73910;BME280;62245;48.070;7.874;2023-09-07T18:07:43;99131.94;;;26.70;63.51
73910;BME280;62245;48.070;7.874;2023-09-07T18:10:09;99136.09;;;26.67;63.58
73910;BME280;62245;48.070;7.874;2023-09-07T18:12:34;99138.84;;;26.67;63.79
73910;BME280;62245;48.070;7.874;2023-09-07T18:14:59;99138.91;;;26.54;64.83
73910;BME280;62245;48.070;7.874;2023-09-07T18:17:25;99144.00;;;26.47;65.51
73910;BME280;62245;48.070;7.874;2023-09-07T18:19:52;99147.88;;;26.46;65.46
73910;BME280;62245;48.070;7.874;2023-09-07T18:22:17;99144.44;;;26.40;65.74
73910;BME280;62245;48.070;7.874;2023-09-07T18:24:42;99149.09;;;26.40;65.53
73910;BME280;62245;48.070;7.874;2023-09-07T18:27:07;99156.44;;;26.30;66.39
73910;BME280;62245;48.070;7.874;2023-09-07T18:29:33;99163.53;;;26.32;65.68
73910;BME280;62245;48.070;7.874;2023-09-07T18:31:59;99158.06;;;26.18;66.50
73910;BME280;62245;48.070;7.874;2023-09-07T18:34:24;99158.00;;;26.09;66.94
73910;BME280;62245;48.070;7.874;2023-09-07T18:36:50;99157.94;;;26.01;66.90
73910;BME280;62245;48.070;7.874;2023-09-07T18:39:15;99165.00;;;26.02;67.30
73910;BME280;62245;48.070;7.874;2023-09-07T18:41:41;99160.44;;;25.97;67.40
73910;BME280;62245;48.070;7.874;2023-09-07T18:44:06;99168.84;;;26.01;67.51
73910;BME280;62245;48.070;7.874;2023-09-07T18:46:31;99176.25;;;26.00;67.08
73910;BME280;62245;48.070;7.874;2023-09-07T18:48:56;99162.19;;;25.93;67.38
73910;BME280;62245;48.070;7.874;2023-09-07T18:51:22;99165.41;;;25.95;67.53
73910;BME280;62245;48.070;7.874;2023-09-07T18:53:47;99163.63;;;25.90;67.67
73910;BME280;62245;48.070;7.874;2023-09-07T18:56:12;99161.00;;;25.85;67.58
73910;BME280;62245;48.070;7.874;2023-09-07T18:58:38;99159.38;;;25.71;68.28
73910;BME280;62245;48.070;7.874;2023-09-07T19:01:15;99162.84;;;25.76;68.01
73910;BME280;62245;48.070;7.874;2023-09-07T19:03:51;99163.13;;;25.75;68.04
73910;BME280;62245;48.070;7.874;2023-09-07T19:06:17;99158.78;;;25.74;68.33
73910;BME280;62245;48.070;7.874;2023-09-07T19:08:43;99166.47;;;25.72;68.24
73910;BME280;62245;48.070;7.874;2023-09-07T19:11:08;99163.22;;;25.70;68.22
73910;BME280;62245;48.070;7.874;2023-09-07T19:13:34;99161.13;;;25.67;68.40
73910;BME280;62245;48.070;7.874;2023-09-07T19:15:59;99168.00;;;25.64;68.27
73910;BME280;62245;48.070;7.874;2023-09-07T19:18:25;99161.81;;;25.59;68.47
73910;BME280;62245;48.070;7.874;2023-09-07T19:20:54;99160.28;;;25.52;68.59
73910;BME280;62245;48.070;7.874;2023-09-07T19:23:20;99165.56;;;25.49;69.48
73910;BME280;62245;48.070;7.874;2023-09-07T19:25:45;99163.44;;;25.46;69.24
73910;BME280;62245;48.070;7.874;2023-09-07T19:28:11;99163.25;;;25.42;69.41
73910;BME280;62245;48.070;7.874;2023-09-07T19:30:36;99164.72;;;25.35;69.49
73910;BME280;62245;48.070;7.874;2023-09-07T19:33:01;99168.91;;;25.32;69.43
73910;BME280;62245;48.070;7.874;2023-09-07T19:35:26;99164.31;;;25.28;69.98
73910;BME280;62245;48.070;7.874;2023-09-07T19:37:52;99175.13;;;25.19;70.48
73910;BME280;62245;48.070;7.874;2023-09-07T19:40:18;99172.13;;;25.21;70.41
73910;BME280;62245;48.070;7.874;2023-09-07T19:42:44;99173.53;;;25.18;70.41
73910;BME280;62245;48.070;7.874;2023-09-07T19:45:09;99171.13;;;25.16;70.51
73910;BME280;62245;48.070;7.874;2023-09-07T19:47:34;99175.31;;;25.09;71.00
73910;BME280;62245;48.070;7.874;2023-09-07T19:50:00;99173.47;;;24.91;71.41
73910;BME280;62245;48.070;7.874;2023-09-07T19:52:26;99180.72;;;24.81;71.59
73910;BME280;62245;48.070;7.874;2023-09-07T19:54:52;99180.09;;;24.85;71.92
73910;BME280;62245;48.070;7.874;2023-09-07T19:57:17;99183.66;;;24.85;71.48
73910;BME280;62245;48.070;7.874;2023-09-07T19:59:42;99189.41;;;24.83;71.75
73910;BME280;62245;48.070;7.874;2023-09-07T20:02:10;99188.28;;;24.85;71.83
73910;BME280;62245;48.070;7.874;2023-09-07T20:04:35;99188.59;;;24.83;71.99
73910;BME280;62245;48.070;7.874;2023-09-07T20:07:00;99192.09;;;24.70;72.55
73910;BME280;62245;48.070;7.874;2023-09-07T20:09:28;99192.38;;;24.68;72.49
73910;BME280;62245;48.070;7.874;2023-09-07T20:11:53;99192.63;;;24.72;72.36
73910;BME280;62245;48.070;7.874;2023-09-07T20:14:19;99186.63;;;24.70;72.51
73910;BME280;62245;48.070;7.874;2023-09-07T20:16:45;99195.94;;;24.69;72.14
73910;BME280;62245;48.070;7.874;2023-09-07T20:19:11;99188.03;;;24.67;72.66
73910;BME280;62245;48.070;7.874;2023-09-07T20:21:36;99188.66;;;24.64;72.89
73910;BME280;62245;48.070;7.874;2023-09-07T20:24:02;99187.50;;;24.65;72.47
73910;BME280;62245;48.070;7.874;2023-09-07T20:26:29;99187.50;;;24.65;73.00
73910;BME280;62245;48.070;7.874;2023-09-07T20:28:54;99188.31;;;24.66;72.97
73910;BME280;62245;48.070;7.874;2023-09-07T20:31:20;99189.66;;;24.68;72.40
73910;BME280;62245;48.070;7.874;2023-09-07T20:33:46;99193.44;;;24.72;72.39
73910;BME280;62245;48.070;7.874;2023-09-07T20:36:12;99200.19;;;24.75;72.22
73910;BME280;62245;48.070;7.874;2023-09-07T20:38:37;99194.91;;;24.65;72.81
73910;BME280;62245;48.070;7.874;2023-09-07T20:41:03;99197.94;;;24.63;72.77
73910;BME280;62245;48.070;7.874;2023-09-07T20:43:29;99194.69;;;24.61;72.59
73910;BME280;62245;48.070;7.874;2023-09-07T20:45:55;99188.81;;;24.54;72.64
73910;BME280;62245;48.070;7.874;2023-09-07T20:48:21;99184.47;;;24.53;72.65
73910;BME280;62245;48.070;7.874;2023-09-07T20:50:47;99186.56;;;24.56;72.63
73910;BME280;62245;48.070;7.874;2023-09-07T20:53:13;99192.25;;;24.60;72.51
73910;BME280;62245;48.070;7.874;2023-09-07T20:55:38;99193.75;;;24.52;72.91
73910;BME280;62245;48.070;7.874;2023-09-07T20:58:04;99189.09;;;24.53;72.71
73910;BME280;62245;48.070;7.874;2023-09-07T21:00:29;99184.22;;;24.50;72.89
73910;BME280;62245;48.070;7.874;2023-09-07T21:02:55;99188.16;;;24.43;73.07
73910;BME280;62245;48.070;7.874;2023-09-07T21:05:20;99181.97;;;24.38;73.15
73910;BME280;62245;48.070;7.874;2023-09-07T21:07:48;99194.00;;;24.37;73.44
73910;BME280;62245;48.070;7.874;2023-09-07T21:10:14;99189.13;;;24.34;73.46
73910;BME280;62245;48.070;7.874;2023-09-07T21:12:41;99190.81;;;24.30;73.26
73910;BME280;62245;48.070;7.874;2023-09-07T21:15:07;99191.31;;;24.32;73.30
73910;BME280;62245;48.070;7.874;2023-09-07T21:17:33;99185.44;;;24.25;73.72
73910;BME280;62245;48.070;7.874;2023-09-07T21:19:59;99186.25;;;24.25;73.59
73910;BME280;62245;48.070;7.874;2023-09-07T21:22:25;99183.75;;;24.29;73.33
73910;BME280;62245;48.070;7.874;2023-09-07T21:24:50;99194.66;;;24.29;73.48
73910;BME280;62245;48.070;7.874;2023-09-07T21:27:16;99191.41;;;24.27;73.06
73910;BME280;62245;48.070;7.874;2023-09-07T21:29:41;99203.31;;;24.31;73.38
73910;BME280;62245;48.070;7.874;2023-09-07T21:32:06;99200.91;;;24.29;73.19
73910;BME280;62245;48.070;7.874;2023-09-07T21:34:31;99198.47;;;24.28;73.36
73910;BME280;62245;48.070;7.874;2023-09-07T21:36:57;99202.03;;;24.28;73.34
73910;BME280;62245;48.070;7.874;2023-09-07T21:39:22;99190.81;;;24.30;73.17
73910;BME280;62245;48.070;7.874;2023-09-07T21:41:48;99197.06;;;24.30;73.15
73910;BME280;62245;48.070;7.874;2023-09-07T21:44:15;99198.84;;;24.21;73.48
73910;BME280;62245;48.070;7.874;2023-09-07T21:46:40;99190.72;;;24.16;74.38
73910;BME280;62245;48.070;7.874;2023-09-07T21:49:05;99189.91;;;24.16;73.89
73910;BME280;62245;48.070;7.874;2023-09-07T21:51:31;99180.09;;;24.15;73.31
73910;BME280;62245;48.070;7.874;2023-09-07T21:53:56;99192.69;;;24.11;73.63
73910;BME280;62245;48.070;7.874;2023-09-07T21:56:21;99182.91;;;24.10;73.64
73910;BME280;62245;48.070;7.874;2023-09-07T21:58:47;99187.81;;;24.07;74.40
73910;BME280;62245;48.070;7.874;2023-09-07T22:01:12;99182.94;;;24.04;73.84
73910;BME280;62245;48.070;7.874;2023-09-07T22:03:37;99184.56;;;24.05;73.77
